Ryouei Maru — JL6703 — position and weather

sailwx.info

Track history (hours):
 
Tides and Currents Weather Stations Pressure Air Temp Water Temp Dewpoint Dewpoint Depression Visibility Wind Speed Wind Dir Waves Ship Positions

Ryouei Maru

Last reported at 2015-Jan-28 15:13 UTC. Time now 2015-Jan-30 08:01 UTC.
Position N 34°55' E 140°07'.

Length 95 m; draft 5 m.

Type: Cargo ship. MMSI: 431501749.

Date/timePositionNaut miles runAvg speedWind from/ knotsBaromVisibWave heightAir tempDewpointWater temp
2015-Jan-28 15:13N 34°55' E 140°07'1212.0
2015-Jan-28 14:12N 34°49' E 139°54'811.9
2015-Jan-28 13:31N 34°46' E 139°45'24010.9
2015-Jan-27 15:27N 33°58' E 134°60'1213.7
2015-Jan-27 14:33N 34°10' E 134°59'1313.3
2015-Jan-27 13:33N 34°23' E 135°01'1414.1
2015-Jan-27 12:33N 34°32' E 135°15'1010.0
2015-Jan-27 11:33N 34°37' E 135°26'0 0.0
2015-Jan-27 10:23N 34°37' E 135°26'0 0.1
2015-Jan-27 09:29N 34°37' E 135°26'0 0.0
2015-Jan-27 08:23N 34°37' E 135°26'0 0.0
2015-Jan-27 07:11N 34°37' E 135°26'0 0.0
2015-Jan-27 06:23N 34°37' E 135°26'0 0.0
2015-Jan-27 05:29N 34°37' E 135°26'0 0.0
2015-Jan-27 04:29N 34°37' E 135°26'0 0.0
2015-Jan-27 03:29N 34°37' E 135°26'0 0.0
2015-Jan-27 02:29N 34°37' E 135°26'0 0.0
2015-Jan-27 01:29N 34°37' E 135°26'0 0.0
2015-Jan-27 00:29N 34°37' E 135°26'0 0.0
2015-Jan-26 23:23N 34°37' E 135°26'0 0.1
2015-Jan-26 22:30N 34°37' E 135°26'4 4.4
2015-Jan-26 21:33N 34°36' E 135°21'3 2.6
2015-Jan-26 20:32N 34°35' E 135°18'0 0.0
2015-Jan-26 19:32N 34°35' E 135°18'0 0.1
2015-Jan-26 18:14N 34°35' E 135°18'0 0.0
2015-Jan-26 17:32N 34°35' E 135°18'0 0.0
2015-Jan-26 16:32N 34°35' E 135°18'1 0.7
2015-Jan-26 15:33N 34°34' E 135°17'1212.0
2015-Jan-26 14:33N 34°26' E 135°07'1211.8
2015-Jan-26 13:32N 34°15' E 134°59'1211.6
2015-Jan-26 12:29N 34°03' E 135°00'24410.6
2015-Jan-25 13:26N 34°48' E 139°50'9 9.9
2015-Jan-25 12:29N 34°53' E 140°00'  
2015-Jan-20 15:27N 34°55' E 140°04'1411.5
2015-Jan-20 14:12N 34°47' E 139°49'24311.2
2015-Jan-19 16:30N 33°59' E 134°60'1313.9
2015-Jan-19 15:34N 34°12' E 134°59'1413.2
2015-Jan-19 14:31N 34°25' E 135°04'1312.8
2015-Jan-19 13:32N 34°33' E 135°16'9 9.1
2015-Jan-19 12:33N 34°37' E 135°26'0 0.0
2015-Jan-19 11:28N 34°37' E 135°26'0 0.0
2015-Jan-19 10:28N 34°37' E 135°26'0 0.0
2015-Jan-19 09:28N 34°37' E 135°26'0 0.0
2015-Jan-19 07:22N 34°37' E 135°26'0 0.1
2015-Jan-19 06:28N 34°37' E 135°26'0 0.0
2015-Jan-19 05:28N 34°37' E 135°26'0 0.0
2015-Jan-19 04:28N 34°37' E 135°26'0 0.0
2015-Jan-19 03:16N 34°37' E 135°26'0 0.0
2015-Jan-19 02:16N 34°37' E 135°26'0 0.0
2015-Jan-19 01:16N 34°37' E 135°26'0 0.4
2015-Jan-19 00:34N 34°37' E 135°26'1110.5
2015-Jan-18 23:33N 34°31' E 135°16'1413.3
2015-Jan-18 22:28N 34°21' E 135°03'1112.3
2015-Jan-18 21:33N 34°09' E 135°01'  
Track history (hours):
 
Tides and Currents Weather Stations Pressure Air Temp Water Temp Dewpoint Dewpoint Depression Visibility Wind Speed Wind Dir Waves Ship Positions

Ryouei Maru

Last reported at 2015-Jan-28 15:13 UTC. Time now 2015-Jan-30 08:01 UTC.
Position N 34°55' E 140°07'.

Length 95 m; draft 5 m.

Type: Cargo ship. MMSI: 431501749.

Date/timePositionNaut miles runAvg speedWind from/ knotsBaromVisibWave heightAir tempDewpointWater temp
2015-Jan-28 15:13N 34°55' E 140°07'1212.0
2015-Jan-28 14:12N 34°49' E 139°54'811.9
2015-Jan-28 13:31N 34°46' E 139°45'24010.9
2015-Jan-27 15:27N 33°58' E 134°60'1213.7
2015-Jan-27 14:33N 34°10' E 134°59'1313.3
2015-Jan-27 13:33N 34°23' E 135°01'1414.1
2015-Jan-27 12:33N 34°32' E 135°15'1010.0
2015-Jan-27 11:33N 34°37' E 135°26'0 0.0
2015-Jan-27 10:23N 34°37' E 135°26'0 0.1
2015-Jan-27 09:29N 34°37' E 135°26'0 0.0
2015-Jan-27 08:23N 34°37' E 135°26'0 0.0
2015-Jan-27 07:11N 34°37' E 135°26'0 0.0
2015-Jan-27 06:23N 34°37' E 135°26'0 0.0
2015-Jan-27 05:29N 34°37' E 135°26'0 0.0
2015-Jan-27 04:29N 34°37' E 135°26'0 0.0
2015-Jan-27 03:29N 34°37' E 135°26'0 0.0
2015-Jan-27 02:29N 34°37' E 135°26'0 0.0
2015-Jan-27 01:29N 34°37' E 135°26'0 0.0
2015-Jan-27 00:29N 34°37' E 135°26'0 0.0
2015-Jan-26 23:23N 34°37' E 135°26'0 0.1
2015-Jan-26 22:30N 34°37' E 135°26'4 4.4
2015-Jan-26 21:33N 34°36' E 135°21'3 2.6
2015-Jan-26 20:32N 34°35' E 135°18'0 0.0
2015-Jan-26 19:32N 34°35' E 135°18'0 0.1
2015-Jan-26 18:14N 34°35' E 135°18'0 0.0
2015-Jan-26 17:32N 34°35' E 135°18'0 0.0
2015-Jan-26 16:32N 34°35' E 135°18'1 0.7
2015-Jan-26 15:33N 34°34' E 135°17'1212.0
2015-Jan-26 14:33N 34°26' E 135°07'1211.8
2015-Jan-26 13:32N 34°15' E 134°59'1211.6
2015-Jan-26 12:29N 34°03' E 135°00'24410.6
2015-Jan-25 13:26N 34°48' E 139°50'9 9.9
2015-Jan-25 12:29N 34°53' E 140°00'  
2015-Jan-20 15:27N 34°55' E 140°04'1411.5
2015-Jan-20 14:12N 34°47' E 139°49'24311.2
2015-Jan-19 16:30N 33°59' E 134°60'1313.9
2015-Jan-19 15:34N 34°12' E 134°59'1413.2
2015-Jan-19 14:31N 34°25' E 135°04'1312.8
2015-Jan-19 13:32N 34°33' E 135°16'9 9.1
2015-Jan-19 12:33N 34°37' E 135°26'0 0.0
2015-Jan-19 11:28N 34°37' E 135°26'0 0.0
2015-Jan-19 10:28N 34°37' E 135°26'0 0.0
2015-Jan-19 09:28N 34°37' E 135°26'0 0.0
2015-Jan-19 07:22N 34°37' E 135°26'0 0.1
2015-Jan-19 06:28N 34°37' E 135°26'0 0.0
2015-Jan-19 05:28N 34°37' E 135°26'0 0.0
2015-Jan-19 04:28N 34°37' E 135°26'0 0.0
2015-Jan-19 03:16N 34°37' E 135°26'0 0.0
2015-Jan-19 02:16N 34°37' E 135°26'0 0.0
2015-Jan-19 01:16N 34°37' E 135°26'0 0.4
2015-Jan-19 00:34N 34°37' E 135°26'1110.5
2015-Jan-18 23:33N 34°31' E 135°16'1413.3
2015-Jan-18 22:28N 34°21' E 135°03'1112.3
2015-Jan-18 21:33N 34°09' E 135°01'  

Dump ship's entire track history